Time;durP1;ratioP1;P1;durP2;ratioP2;P2;SDS_P1;SDS_P2;PMS_P1;PMS_P2;Temp;Humidity;BMP_temperature;BMP_pressure;BME280_temperature;BME280_humidity;BME280_pressure;Samples;Min_cycle;Max_cycle;Signal;HPM_P1;HPM_P2
2019/08/31 00:01:12;;;;;;;14.2;12.9;;;;;;;20.53;84.43262;963.9523;;;;
2019/08/31 00:03:37;;;;;;;14.5;13.2;;;;;;;20.51;85.61914;963.9927;;;;
2019/08/31 00:06:02;;;;;;;13.7;12.4;;;;;;;20.49;85.16602;963.9659;;;;
2019/08/31 00:08:27;;;;;;;13.7;12.5;;;;;;;20.51;84.66504;963.8262;;;;
2019/08/31 00:10:52;;;;;;;14.1;12.8;;;;;;;20.5;85.19141;963.7975;;;;
2019/08/31 00:13:18;;;;;;;12.9;11.7;;;;;;;20.45;85.05176;963.7841;;;;
2019/08/31 00:15:43;;;;;;;14.6;13.3;;;;;;;20.45;84.7002;963.8072;;;;
2019/08/31 00:18:08;;;;;;;14.1;12.8;;;;;;;20.46;85.47852;963.8187;;;;
2019/08/31 00:20:33;;;;;;;13.6;12.4;;;;;;;20.43;85.5918;963.7908;;;;
2019/08/31 00:22:58;;;;;;;14.4;12.9;;;;;;;20.38;86.16992;963.7743;;;;
2019/08/31 00:25:23;;;;;;;13.9;12.6;;;;;;;20.33;86.34766;963.7682;;;;
2019/08/31 00:27:48;;;;;;;13.7;12.4;;;;;;;20.31;86.30859;963.7561;;;;
2019/08/31 00:30:13;;;;;;;14;12.8;;;;;;;20.19;87.23926;963.7383;;;;
2019/08/31 00:32:38;;;;;;;14.6;13.2;;;;;;;20.09;87.28809;963.7661;;;;
2019/08/31 00:35:03;;;;;;;14.6;13.2;;;;;;;20.07;87.36914;963.6967;;;;
2019/08/31 00:37:28;;;;;;;15.3;13.9;;;;;;;19.99;88.49316;963.663;;;;
2019/08/31 00:39:53;;;;;;;15.4;13.8;;;;;;;20.08;87.39355;963.6247;;;;
2019/08/31 00:42:21;;;;;;;15.7;14.2;;;;;;;20.08;87.14746;963.6462;;;;
2019/08/31 00:44:47;;;;;;;15.3;13.9;;;;;;;20.13;87.03809;963.6082;;;;
2019/08/31 00:47:12;;;;;;;16.3;14.7;;;;;;;20.02;87.71094;963.5972;;;;
2019/08/31 00:49:37;;;;;;;16.1;14.6;;;;;;;20.04;88.58496;963.5903;;;;
2019/08/31 00:52:02;;;;;;;16.6;14.9;;;;;;;20.03;87.77148;963.5747;;;;
2019/08/31 00:54:27;;;;;;;16.4;14.8;;;;;;;19.98;87.98438;963.6033;;;;
2019/08/31 00:56:52;;;;;;;15.5;14.1;;;;;;;20;87.77832;963.5981;;;;
2019/08/31 00:59:17;;;;;;;15.7;14.2;;;;;;;19.95;87.91992;963.5642;;;;
2019/08/31 01:01:42;;;;;;;14.7;13.4;;;;;;;19.97;87.73535;963.5474;;;;
2019/08/31 01:04:07;;;;;;;14.9;13.6;;;;;;;20.01;86.5;963.4791;;;;
2019/08/31 01:06:32;;;;;;;15.9;14.5;;;;;;;19.92;87.05469;963.4278;;;;
2019/08/31 01:08:57;;;;;;;15.5;14;;;;;;;19.98;86.51563;963.4833;;;;
2019/08/31 01:11:22;;;;;;;15.1;13.7;;;;;;;19.94;86.89551;963.4433;;;;
2019/08/31 01:13:47;;;;;;;14.7;13.3;;;;;;;19.99;86.51758;963.4329;;;;
2019/08/31 01:16:13;;;;;;;14.8;13.5;;;;;;;19.92;86.4082;963.3658;;;;
2019/08/31 01:18:38;;;;;;;16.2;14.6;;;;;;;19.8;86.67871;963.3918;;;;
2019/08/31 01:21:03;;;;;;;15.8;14.3;;;;;;;19.74;87.90234;963.3851;;;;
2019/08/31 01:23:28;;;;;;;15.2;13.7;;;;;;;19.71;88.87109;963.325;;;;
2019/08/31 01:25:53;;;;;;;15.6;14.1;;;;;;;19.66;88.44922;963.2786;;;;
2019/08/31 01:28:18;;;;;;;16.7;15.2;;;;;;;19.56;88.39355;963.3279;;;;
2019/08/31 01:30:43;;;;;;;17;15.4;;;;;;;19.45;88.57227;963.2779;;;;
2019/08/31 01:33:08;;;;;;;16.4;14.8;;;;;;;19.6;87.04004;963.2492;;;;
2019/08/31 01:35:33;;;;;;;17;15.3;;;;;;;19.64;87.34082;963.2148;;;;
2019/08/31 01:37:58;;;;;;;16.3;14.8;;;;;;;19.62;88.10059;963.1942;;;;
2019/08/31 01:40:23;;;;;;;16.3;14.9;;;;;;;19.59;88.23828;963.1756;;;;
2019/08/31 01:42:48;;;;;;;17.9;16.1;;;;;;;19.59;86.58984;963.1566;;;;
2019/08/31 01:45:14;;;;;;;17.7;16;;;;;;;19.6;87.21582;963.0887;;;;
2019/08/31 01:47:39;;;;;;;15.8;14.4;;;;;;;19.66;86.26465;963.1181;;;;
2019/08/31 01:50:04;;;;;;;17.5;16;;;;;;;19.56;86.97363;963.1038;;;;
2019/08/31 01:52:29;;;;;;;18.1;16.3;;;;;;;19.54;86.75684;963.111;;;;
2019/08/31 01:54:54;;;;;;;17.4;15.9;;;;;;;19.52;87.10645;963.1011;;;;
2019/08/31 01:59:45;;;;;;;18.3;16.6;;;;;;;19.39;88.13867;963.1628;;;;
2019/08/31 02:02:10;;;;;;;18.1;16.5;;;;;;;19.28;88.52637;963.1298;;;;
2019/08/31 02:04:36;;;;;;;18.1;16.5;;;;;;;19.34;88.57422;963.1392;;;;
2019/08/31 02:07:01;;;;;;;17;15.5;;;;;;;19.45;87.46777;963.0714;;;;
2019/08/31 02:09:27;;;;;;;18.1;16.4;;;;;;;19.45;88.2666;963.0978;;;;
2019/08/31 02:11:52;;;;;;;18.2;16.5;;;;;;;19.42;88.24902;963.0475;;;;
2019/08/31 02:14:17;;;;;;;17.7;16;;;;;;;19.43;88.11035;962.9978;;;;
2019/08/31 02:16:42;;;;;;;18.4;16.7;;;;;;;19.34;88.71484;963.0087;;;;
2019/08/31 02:19:07;;;;;;;18.3;16.5;;;;;;;;;;;;;
2019/08/31 02:21:32;;;;;;;19.6;17.8;;;;;;;;;;;;;
2019/08/31 02:23:57;;;;;;;19.2;17.3;;;;;;;;;;;;;
2019/08/31 02:26:22;;;;;;;18.9;17.1;;;;;;;;;;;;;
2019/08/31 02:28:48;;;;;;;18.5;16.8;;;;;;;;;;;;;
2019/08/31 02:31:13;;;;;;;18.4;16.8;;;;;;;;;;;;;
2019/08/31 02:33:38;;;;;;;18.2;16.6;;;;;;;;;;;;;
2019/08/31 02:36:03;;;;;;;19.2;17.5;;;;;;;;;;;;;
2019/08/31 02:38:28;;;;;;;18.9;17;;;;;;;;;;;;;
2019/08/31 02:40:53;;;;;;;19.1;17.3;;;;;;;;;;;;;
2019/08/31 02:43:18;;;;;;;18.8;17.1;;;;;;;;;;;;;
2019/08/31 02:45:43;;;;;;;19;17.3;;;;;;;;;;;;;
2019/08/31 02:48:08;;;;;;;19.2;17.3;;;;;;;;;;;;;
2019/08/31 02:50:33;;;;;;;19.7;17.9;;;;;;;;;;;;;
2019/08/31 02:52:58;;;;;;;19;17.2;;;;;;;;;;;;;
2019/08/31 02:55:23;;;;;;;19.3;17.5;;;;;;;;;;;;;
2019/08/31 02:57:49;;;;;;;19.7;17.8;;;;;;;;;;;;;
2019/08/31 03:00:14;;;;;;;19;17.3;;;;;;;;;;;;;
2019/08/31 03:02:39;;;;;;;19.9;17.9;;;;;;;;;;;;;
2019/08/31 03:05:04;;;;;;;20.6;18.7;;;;;;;;;;;;;
2019/08/31 03:07:29;;;;;;;19.4;17.5;;;;;;;;;;;;;
2019/08/31 03:09:54;;;;;;;18.2;16.6;;;;;;;;;;;;;
2019/08/31 03:12:19;;;;;;;19.3;17.4;;;;;;;;;;;;;
2019/08/31 03:14:45;;;;;;;19.3;17.5;;;;;;;;;;;;;
2019/08/31 03:17:10;;;;;;;19;17.1;;;;;;;;;;;;;
2019/08/31 03:19:35;;;;;;;18.1;16.5;;;;;;;;;;;;;
2019/08/31 03:22:00;;;;;;;17.7;16.1;;;;;;;;;;;;;
2019/08/31 03:24:25;;;;;;;17.9;16.2;;;;;;;;;;;;;
2019/08/31 03:26:50;;;;;;;18.2;16.4;;;;;;;;;;;;;
2019/08/31 03:29:15;;;;;;;18.1;16.4;;;;;;;;;;;;;
2019/08/31 03:31:40;;;;;;;18.5;16.8;;;;;;;;;;;;;
2019/08/31 03:34:05;;;;;;;18.4;16.7;;;;;;;;;;;;;
2019/08/31 03:36:30;;;;;;;18.2;16.5;;;;;;;;;;;;;
2019/08/31 03:38:56;;;;;;;19.5;17.7;;;;;;;;;;;;;
2019/08/31 03:41:21;;;;;;;20.3;18.3;;;;;;;;;;;;;
2019/08/31 03:43:46;;;;;;;19.9;18;;;;;;;;;;;;;
2019/08/31 03:46:11;;;;;;;18.4;16.7;;;;;;;;;;;;;
2019/08/31 03:48:36;;;;;;;19.4;17.5;;;;;;;;;;;;;
2019/08/31 03:51:01;;;;;;;19.7;17.8;;;;;;;;;;;;;
2019/08/31 03:53:26;;;;;;;19.8;17.8;;;;;;;;;;;;;
2019/08/31 03:55:51;;;;;;;19.4;17.5;;;;;;;;;;;;;
2019/08/31 03:58:17;;;;;;;19.2;17.4;;;;;;;;;;;;;
2019/08/31 04:02:27;;;;;;;18.6;16.7;;;;;;;18.88;90.18164;962.5048;;;;
2019/08/31 04:04:52;;;;;;;17.5;15.8;;;;;;;18.9;90.59766;962.4987;;;;
2019/08/31 04:07:17;;;;;;;18.4;16.6;;;;;;;18.81;90.36816;962.5175;;;;
2019/08/31 04:09:42;;;;;;;19;17.2;;;;;;;18.75;91.09375;962.5297;;;;
2019/08/31 04:12:07;;;;;;;18.3;16.6;;;;;;;18.72;91.07422;962.5064;;;;
2019/08/31 04:14:32;;;;;;;18.3;16.6;;;;;;;18.7;90.91895;962.5109;;;;
2019/08/31 04:16:57;;;;;;;18.9;16.9;;;;;;;18.71;90.91016;962.5239;;;;
2019/08/31 04:19:22;;;;;;;18.9;17.1;;;;;;;18.63;91.80859;962.5112;;;;
2019/08/31 04:21:47;;;;;;;19.5;17.4;;;;;;;18.53;92.01074;962.5005;;;;
2019/08/31 04:24:13;;;;;;;18.4;16.6;;;;;;;18.38;93.4082;962.5;;;;
2019/08/31 04:26:38;;;;;;;18.3;16.5;;;;;;;18.46;92.19434;962.5291;;;;
2019/08/31 04:29:03;;;;;;;18.8;17;;;;;;;18.46;91.9248;962.5358;;;;
2019/08/31 04:31:28;;;;;;;17.8;16.1;;;;;;;18.5;91.8877;962.485;;;;
2019/08/31 04:33:53;;;;;;;18.8;17;;;;;;;18.55;91.73145;962.4626;;;;
2019/08/31 04:36:18;;;;;;;19.5;17.7;;;;;;;18.5;91.78027;962.5033;;;;
2019/08/31 04:38:43;;;;;;;19.7;17.7;;;;;;;18.5;92.2627;962.485;;;;
2019/08/31 04:41:08;;;;;;;20.1;18.1;;;;;;;18.47;92.23145;962.5315;;;;
2019/08/31 04:43:33;;;;;;;18.6;16.8;;;;;;;18.45;92.19141;962.4623;;;;
2019/08/31 04:45:58;;;;;;;18.7;16.8;;;;;;;18.43;92.42188;962.4642;;;;
2019/08/31 04:50:20;;;;;;;19;17.1;;;;;;;18.42;91.91797;962.4673;;;;
2019/08/31 04:52:45;;;;;;;17.6;15.8;;;;;;;18.46;91.71387;962.4565;;;;
2019/08/31 04:55:10;;;;;;;17.9;16.2;;;;;;;18.54;91.96387;962.4394;;;;
2019/08/31 04:57:35;;;;;;;18.1;16.2;;;;;;;18.5;91.48926;962.4553;;;;
2019/08/31 05:00:00;;;;;;;17.9;16.2;;;;;;;18.54;91.31934;962.4615;;;;
2019/08/31 05:02:25;;;;;;;19.9;18;;;;;;;18.45;91.99316;962.4796;;;;
2019/08/31 05:04:50;;;;;;;19.2;17.3;;;;;;;18.31;92.9375;962.4518;;;;
2019/08/31 05:07:16;;;;;;;19;17.1;;;;;;;18.3;93.19141;962.4261;;;;
2019/08/31 05:09:41;;;;;;;19.2;17.3;;;;;;;18.37;92.83203;962.4152;;;;
2019/08/31 05:12:06;;;;;;;18.6;16.7;;;;;;;18.39;92.26172;962.3611;;;;
2019/08/31 05:14:31;;;;;;;19.2;17.3;;;;;;;18.44;92.2832;962.3906;;;;
2019/08/31 05:16:56;;;;;;;19.3;17.3;;;;;;;18.36;92.64063;962.3317;;;;
2019/08/31 05:19:21;;;;;;;19.9;17.9;;;;;;;18.3;93.20313;962.3544;;;;
2019/08/31 05:21:46;;;;;;;19.4;17.4;;;;;;;18.36;93.1582;962.3406;;;;
2019/08/31 05:24:11;;;;;;;19.6;17.6;;;;;;;18.43;93.19531;962.3173;;;;
2019/08/31 05:26:36;;;;;;;20.1;18;;;;;;;18.52;92.83887;962.3503;;;;
2019/08/31 05:29:01;;;;;;;18.9;17.1;;;;;;;18.54;92.4209;962.3568;;;;
2019/08/31 05:31:26;;;;;;;19.6;17.7;;;;;;;18.49;92.58691;962.3053;;;;
2019/08/31 05:33:51;;;;;;;19.6;17.7;;;;;;;18.45;93.86816;962.3309;;;;
2019/08/31 05:36:17;;;;;;;21.6;19.4;;;;;;;18.38;94.46289;962.3225;;;;
2019/08/31 05:38:42;;;;;;;20.9;18.7;;;;;;;18.41;94.17578;962.3314;;;;
2019/08/31 05:41:07;;;;;;;21.8;19.6;;;;;;;18.43;93.52344;962.3329;;;;
2019/08/31 05:43:32;;;;;;;21.5;19.4;;;;;;;18.44;93.25586;962.3172;;;;
2019/08/31 05:45:57;;;;;;;22;19.9;;;;;;;18.53;93.25098;962.3438;;;;
2019/08/31 05:48:22;;;;;;;22.6;20.3;;;;;;;18.56;92.96582;962.298;;;;
2019/08/31 05:50:47;;;;;;;23.2;20.8;;;;;;;18.6;93.24414;962.3248;;;;
2019/08/31 05:53:12;;;;;;;22.4;20.2;;;;;;;18.68;92.875;962.3276;;;;
2019/08/31 05:55:41;;;;;;;21.9;19.8;;;;;;;18.75;93.34375;962.3373;;;;
2019/08/31 05:58:02;;;;;;;22.2;20.1;;;;;;;18.76;93.37109;962.3358;;;;
2019/08/31 06:00:27;;;;;;;24.2;21.9;;;;;;;18.78;93.29395;962.3253;;;;
2019/08/31 06:02:53;;;;;;;23.9;21.6;;;;;;;18.93;91.91699;962.329;;;;
2019/08/31 06:05:18;;;;;;;23.7;21.4;;;;;;;19.01;91.71289;962.3572;;;;
2019/08/31 06:07:43;;;;;;;24.3;21.9;;;;;;;19.06;91.23926;962.338;;;;
2019/08/31 06:12:39;;;;;;;24.2;21.8;;;;;;;19.19;91.30176;962.234;;;;
2019/08/31 06:15:04;;;;;;;23.4;21.2;;;;;;;19.24;90.63184;962.213;;;;
2019/08/31 06:17:29;;;;;;;22.1;20;;;;;;;19.32;90.83496;962.2277;;;;
2019/08/31 06:19:54;;;;;;;24.1;21.7;;;;;;;19.32;90.67188;962.1739;;;;
2019/08/31 06:22:19;;;;;;;26.2;23.6;;;;;;;19.28;90.63965;962.1612;;;;
2019/08/31 06:24:44;;;;;;;24.7;22.3;;;;;;;19.29;89.37305;962.1685;;;;
2019/08/31 06:27:09;;;;;;;24.4;22.2;;;;;;;19.46;88.2334;962.1866;;;;
2019/08/31 06:29:34;;;;;;;24.3;22;;;;;;;19.49;88.78027;962.1629;;;;
2019/08/31 06:31:59;;;;;;;24.2;21.9;;;;;;;19.59;87.88379;962.1848;;;;
2019/08/31 06:34:24;;;;;;;23.8;21.4;;;;;;;19.56;88.81836;962.1292;;;;
2019/08/31 06:36:50;;;;;;;25.1;22.6;;;;;;;19.55;89.35742;962.1689;;;;
2019/08/31 06:40:25;;;;;;;22.7;20.5;;;;;;;19.8;86.92773;962.1133;;;;
2019/08/31 06:42:50;;;;;;;23.4;21.2;;;;;;;19.83;86.93262;962.1036;;;;
2019/08/31 06:45:15;;;;;;;24.6;22.1;;;;;;;19.91;86.04395;962.0613;;;;
2019/08/31 06:47:40;;;;;;;23.9;21.6;;;;;;;19.85;86.70117;962.0388;;;;
2019/08/31 06:50:05;;;;;;;25;22.6;;;;;;;19.83;86.20605;962.0317;;;;
2019/08/31 06:52:30;;;;;;;23.6;21.4;;;;;;;19.9;86.21777;962.0614;;;;
2019/08/31 06:54:56;;;;;;;22.7;20.5;;;;;;;19.99;85.84766;962.0511;;;;
2019/08/31 06:57:21;;;;;;;23.8;21.5;;;;;;;20.07;87.11035;962.0906;;;;
2019/08/31 06:59:46;;;;;;;24.2;21.8;;;;;;;20.18;85.3877;962.0997;;;;
2019/08/31 07:02:11;;;;;;;22.5;20.4;;;;;;;20.25;85.29785;962.1219;;;;
2019/08/31 07:04:36;;;;;;;25;22.5;;;;;;;20.23;84.375;962.0908;;;;
2019/08/31 07:07:01;;;;;;;22.9;20.8;;;;;;;20.27;84.30273;962.0817;;;;
2019/08/31 07:09:26;;;;;;;22.7;20.4;;;;;;;20.37;84.99121;962.0555;;;;
2019/08/31 07:11:51;;;;;;;23.7;21.4;;;;;;;20.44;85.52246;962.0759;;;;
2019/08/31 07:14:16;;;;;;;25.2;22.7;;;;;;;20.58;83.18164;962.0558;;;;
2019/08/31 07:16:41;;;;;;;25.8;23.2;;;;;;;20.55;82.74121;962.0382;;;;
2019/08/31 07:19:07;;;;;;;25.1;22.7;;;;;;;20.54;83.68164;962.0432;;;;
2019/08/31 07:21:32;;;;;;;22.6;20.5;;;;;;;20.6;83.87012;962.0164;;;;
2019/08/31 07:23:57;;;;;;;24.4;22;;;;;;;20.51;84.1709;962.0499;;;;
2019/08/31 07:26:22;;;;;;;24.1;21.9;;;;;;;20.61;83.20996;962.0187;;;;
2019/08/31 07:28:47;;;;;;;24.3;22;;;;;;;20.62;83.54297;962.0078;;;;
2019/08/31 07:31:12;;;;;;;24.3;22;;;;;;;20.7;82.875;961.9992;;;;
2019/08/31 07:33:37;;;;;;;23.5;21.1;;;;;;;20.84;82.23047;961.9486;;;;
2019/08/31 07:36:03;;;;;;;22.8;20.6;;;;;;;20.85;83.05664;961.8964;;;;
2019/08/31 07:38:28;;;;;;;22.2;20.2;;;;;;;20.91;83.0332;961.8829;;;;
2019/08/31 07:40:53;;;;;;;24.5;22.2;;;;;;;20.85;83.35156;961.8715;;;;
2019/08/31 07:43:18;;;;;;;24.9;22.5;;;;;;;20.97;82.18359;961.8709;;;;
2019/08/31 07:45:43;;;;;;;24.1;21.9;;;;;;;20.94;83.47461;961.8641;;;;
2019/08/31 07:48:08;;;;;;;25.3;22.8;;;;;;;20.91;83.55176;961.8116;;;;
2019/08/31 07:50:33;;;;;;;23.5;21.3;;;;;;;21.04;83.52832;961.8407;;;;
2019/08/31 07:52:58;;;;;;;24;21.7;;;;;;;21.15;82.68848;961.8513;;;;
2019/08/31 07:55:23;;;;;;;23.5;21.2;;;;;;;21.16;83.05664;961.8583;;;;
2019/08/31 07:57:48;;;;;;;25.6;23.2;;;;;;;21.1;82.93945;961.8819;;;;
2019/08/31 08:00:13;;;;;;;25.6;23.1;;;;;;;21.23;82.47754;961.8505;;;;
2019/08/31 08:02:38;;;;;;;23.4;21.1;;;;;;;21.31;82.90723;961.8289;;;;
2019/08/31 08:05:03;;;;;;;21.7;19.6;;;;;;;21.33;84.62012;961.8253;;;;
2019/08/31 08:07:29;;;;;;;21.8;19.5;;;;;;;21.45;82.86328;961.8449;;;;
2019/08/31 08:09:54;;;;;;;21.9;19.8;;;;;;;21.54;82.57324;961.8024;;;;
2019/08/31 08:12:19;;;;;;;23;20.8;;;;;;;21.58;81.78906;961.8115;;;;
2019/08/31 08:14:45;;;;;;;20.7;18.7;;;;;;;21.67;81.53418;961.7417;;;;
2019/08/31 08:17:10;;;;;;;22.7;20.5;;;;;;;21.69;80.71094;961.7488;;;;
2019/08/31 08:19:35;;;;;;;22.3;20.2;;;;;;;21.54;80.89746;961.7136;;;;
2019/08/31 08:22:01;;;;;;;22.8;20.5;;;;;;;21.74;79.82324;961.7159;;;;
2019/08/31 08:24:26;;;;;;;20.9;18.9;;;;;;;21.83;80.72656;961.6791;;;;
2019/08/31 08:26:51;;;;;;;22.3;20.1;;;;;;;21.87;79.39844;961.7098;;;;
2019/08/31 08:29:16;;;;;;;20.7;18.7;;;;;;;22.04;79.77148;961.6495;;;;
2019/08/31 08:31:42;;;;;;;20.9;18.9;;;;;;;22.09;79.22461;961.6552;;;;
2019/08/31 08:34:07;;;;;;;18.6;16.8;;;;;;;22.11;80.1377;961.6449;;;;
2019/08/31 08:36:33;;;;;;;20.1;18.1;;;;;;;22.25;78.82715;961.6153;;;;
2019/08/31 08:38:58;;;;;;;19.9;17.9;;;;;;;22.26;78.88867;961.6136;;;;
2019/08/31 08:41:24;;;;;;;20.2;18.3;;;;;;;22.36;78.26758;961.6394;;;;
2019/08/31 08:43:49;;;;;;;22.5;20.3;;;;;;;22.3;78.02148;961.5966;;;;
2019/08/31 08:46:14;;;;;;;20.2;18.2;;;;;;;22.28;78.41895;961.6046;;;;
2019/08/31 08:48:40;;;;;;;23;20.8;;;;;;;22.29;79.17676;961.6236;;;;
2019/08/31 08:51:05;;;;;;;21.5;19.4;;;;;;;22.34;78.7959;961.5856;;;;
2019/08/31 08:53:30;;;;;;;22.5;20.4;;;;;;;22.31;77.41895;961.5101;;;;
2019/08/31 08:55:56;;;;;;;19.9;18;;;;;;;22.28;80.2998;961.5123;;;;
2019/08/31 08:58:21;;;;;;;20.2;18.3;;;;;;;22.33;78.71191;961.4945;;;;
2019/08/31 09:00:47;;;;;;;20.4;18.5;;;;;;;22.44;77.69043;961.498;;;;
2019/08/31 09:03:12;;;;;;;20.2;18.1;;;;;;;22.37;77.99707;961.5069;;;;
2019/08/31 09:05:37;;;;;;;17.6;16;;;;;;;22.44;78.28125;961.4515;;;;
2019/08/31 09:08:02;;;;;;;20.2;18.2;;;;;;;22.43;78.18555;961.4456;;;;
2019/08/31 09:10:27;;;;;;;19.4;17.6;;;;;;;22.56;77.38086;961.4525;;;;
2019/08/31 09:12:52;;;;;;;18.9;17.1;;;;;;;22.55;78.20605;961.4525;;;;
2019/08/31 09:15:18;;;;;;;18.3;16.6;;;;;;;22.69;78.17188;961.4833;;;;
2019/08/31 09:17:43;;;;;;;18.4;16.6;;;;;;;22.64;77.38184;961.4745;;;;
2019/08/31 09:20:08;;;;;;;17.7;16;;;;;;;22.73;77.38574;961.5097;;;;
2019/08/31 09:22:34;;;;;;;17.6;15.9;;;;;;;22.83;76.62305;961.4339;;;;
2019/08/31 09:24:59;;;;;;;15.9;14.4;;;;;;;22.94;76.23926;961.4494;;;;
2019/08/31 09:27:24;;;;;;;16.5;14.9;;;;;;;23;75.75098;961.4637;;;;
2019/08/31 09:29:50;;;;;;;17.4;15.8;;;;;;;22.95;75.11719;961.4202;;;;
2019/08/31 09:32:15;;;;;;;16.4;14.9;;;;;;;23.06;74.31738;961.4114;;;;
2019/08/31 09:34:41;;;;;;;15.7;14.1;;;;;;;23.19;74.38672;961.3914;;;;
2019/08/31 09:37:06;;;;;;;17.5;15.8;;;;;;;23.23;75.13867;961.3677;;;;
2019/08/31 09:39:31;;;;;;;15.9;14.4;;;;;;;23.28;75.09961;961.3882;;;;
2019/08/31 09:41:57;;;;;;;16.5;14.9;;;;;;;23.35;74.38965;961.3484;;;;
2019/08/31 09:44:22;;;;;;;16.1;14.5;;;;;;;23.25;74.16016;961.3373;;;;
2019/08/31 09:46:47;;;;;;;15.8;14.3;;;;;;;23.43;73.53809;961.3439;;;;
2019/08/31 09:49:13;;;;;;;15.6;14.2;;;;;;;23.4;75.7959;961.3331;;;;
2019/08/31 09:51:38;;;;;;;15.5;14;;;;;;;23.49;73.1084;961.2765;;;;
2019/08/31 09:54:04;;;;;;;15;13.5;;;;;;;23.57;72.0791;961.2416;;;;
2019/08/31 10:59:53;;;;;;;13.2;12;;;;;;;24.08;68.35156;960.57;;;;
2019/08/31 11:02:19;;;;;;;13;11.8;;;;;;;24.08;68.7207;960.5634;;;;
2019/08/31 11:04:44;;;;;;;13.7;12.4;;;;;;;24.2;69.56836;960.5236;;;;
2019/08/31 11:07:09;;;;;;;13.7;12.4;;;;;;;24.41;68.96094;960.5698;;;;
2019/08/31 11:09:34;;;;;;;14;12.7;;;;;;;24.59;67.9541;960.5684;;;;
2019/08/31 11:11:59;;;;;;;14.5;13.2;;;;;;;24.81;66.40723;960.5457;;;;
2019/08/31 11:14:24;;;;;;;13.8;12.4;;;;;;;24.77;66.73242;960.5295;;;;
2019/08/31 11:16:49;;;;;;;12.5;11.3;;;;;;;24.84;66.99414;960.4961;;;;
2019/08/31 11:19:14;;;;;;;11.6;10.5;;;;;;;24.68;68.01563;960.4918;;;;
2019/08/31 11:21:39;;;;;;;10.8;9.9;;;;;;;24.63;67.47266;960.4487;;;;
2019/08/31 11:24:04;;;;;;;10.9;9.9;;;;;;;24.87;65.78516;960.467;;;;
2019/08/31 11:26:29;;;;;;;12.8;11.5;;;;;;;24.94;65.82129;960.434;;;;
2019/08/31 11:28:55;;;;;;;11.9;10.8;;;;;;;25.09;65.13867;960.3887;;;;
2019/08/31 11:31:20;;;;;;;12.5;11.2;;;;;;;24.99;65.78027;960.4289;;;;
2019/08/31 11:33:45;;;;;;;12.7;11.5;;;;;;;24.97;65.7998;960.4105;;;;
2019/08/31 11:36:10;;;;;;;11.6;10.6;;;;;;;25;66.07715;960.4562;;;;
2019/08/31 11:38:35;;;;;;;11.3;10.3;;;;;;;25.2;64.83496;960.3933;;;;
2019/08/31 11:41:00;;;;;;;11.7;10.5;;;;;;;25.36;64.53613;960.358;;;;
2019/08/31 11:43:25;;;;;;;10.6;9.6;;;;;;;25.51;62.86816;960.3521;;;;
2019/08/31 11:45:50;;;;;;;10.3;9.4;;;;;;;25.66;63.03223;960.2886;;;;
2019/08/31 11:48:15;;;;;;;9.9;9;;;;;;;25.74;65.16309;960.2466;;;;
2019/08/31 11:50:40;;;;;;;11;9.9;;;;;;;25.77;63.71484;960.2637;;;;
2019/08/31 11:53:05;;;;;;;10.5;9.6;;;;;;;25.68;63.71191;960.274;;;;
2019/08/31 11:55:30;;;;;;;10.6;9.7;;;;;;;25.58;63.11621;960.2786;;;;
2019/08/31 12:00:20;;;;;;;9.9;9;;;;;;;25.85;61.68848;960.1906;;;;
2019/08/31 12:02:45;;;;;;;10;9.1;;;;;;;25.86;62.86914;960.1651;;;;
2019/08/31 12:05:11;;;;;;;10.5;9.6;;;;;;;25.83;62.62695;960.1042;;;;
2019/08/31 12:07:36;;;;;;;9.4;8.6;;;;;;;25.92;61.58984;960.0843;;;;
2019/08/31 12:10:01;;;;;;;10.7;9.3;;;;;;;25.81;62.31348;960.0933;;;;
2019/08/31 12:12:26;;;;;;;9.5;8.6;;;;;;;25.93;61.65039;960.0253;;;;
2019/08/31 12:14:51;;;;;;;9.9;9;;;;;;;25.82;62.74414;960.0108;;;;
2019/08/31 12:17:16;;;;;;;7.9;7.2;;;;;;;25.94;61.0918;959.9841;;;;
2019/08/31 12:19:42;;;;;;;9.1;8.3;;;;;;;26.02;61.0918;959.9127;;;;
2019/08/31 12:22:07;;;;;;;9.3;8.4;;;;;;;26.12;60.6748;959.8697;;;;
2019/08/31 12:24:33;;;;;;;9.8;8.9;;;;;;;26.34;59.04688;959.8519;;;;
2019/08/31 12:26:58;;;;;;;9.2;8.3;;;;;;;26.25;60.74121;959.8322;;;;
2019/08/31 12:29:23;;;;;;;9.8;8.9;;;;;;;26.01;62.27051;959.8039;;;;
2019/08/31 12:31:49;;;;;;;9.8;8.9;;;;;;;26.26;61.11133;959.7123;;;;
2019/08/31 12:34:14;;;;;;;9.2;8.4;;;;;;;26.39;59.18652;959.6707;;;;
2019/08/31 12:36:39;;;;;;;8.6;7.8;;;;;;;26.3;59.50781;959.6857;;;;
2019/08/31 12:39:05;;;;;;;8.7;7.9;;;;;;;26.35;57.85645;959.6516;;;;
2019/08/31 12:41:30;;;;;;;9.5;8.7;;;;;;;26.27;59.79004;959.6015;;;;
2019/08/31 12:43:55;;;;;;;8.9;8.1;;;;;;;26.41;60.29688;959.6057;;;;
2019/08/31 12:46:21;;;;;;;8.7;7.8;;;;;;;26.79;59.93164;959.5313;;;;
2019/08/31 12:48:46;;;;;;;8.7;7.9;;;;;;;26.67;58.2666;959.4658;;;;
2019/08/31 12:51:11;;;;;;;8.1;7.4;;;;;;;26.73;57.87012;959.533;;;;
2019/08/31 12:53:36;;;;;;;8.5;7.3;;;;;;;26.91;56.98438;959.468;;;;
2019/08/31 12:56:01;;;;;;;9.1;8.2;;;;;;;26.7;58.25879;959.4192;;;;
2019/08/31 12:58:26;;;;;;;8.7;7.9;;;;;;;26.94;56.61816;959.4361;;;;
2019/08/31 13:00:51;;;;;;;8.9;8.1;;;;;;;26.97;56.90918;959.3819;;;;
2019/08/31 13:03:16;;;;;;;8.5;7.7;;;;;;;27.13;56.12891;959.3627;;;;
2019/08/31 13:05:41;;;;;;;8.4;7.7;;;;;;;27.3;55.5166;959.3422;;;;
2019/08/31 13:08:06;;;;;;;9.1;8.2;;;;;;;26.95;56.40527;959.2662;;;;
2019/08/31 13:10:31;;;;;;;9.1;8.3;;;;;;;26.92;56.78223;959.2562;;;;
2019/08/31 13:12:56;;;;;;;9;8.2;;;;;;;27.15;55.6875;959.2477;;;;
2019/08/31 13:15:21;;;;;;;9.1;8.3;;;;;;;27.2;55.49219;959.1703;;;;
2019/08/31 13:17:47;;;;;;;9.4;8.4;;;;;;;27.29;55.98047;959.1278;;;;
2019/08/31 13:20:12;;;;;;;9.3;8.4;;;;;;;27.14;56.42871;959.0953;;;;
2019/08/31 13:22:37;;;;;;;8.9;8.1;;;;;;;27.24;55.95117;959.0614;;;;
2019/08/31 13:25:02;;;;;;;8.7;7.9;;;;;;;27.45;54.97168;959.0374;;;;
2019/08/31 13:27:27;;;;;;;9.5;8.6;;;;;;;27.42;55.12402;959.0318;;;;
2019/08/31 13:29:52;;;;;;;9;8.1;;;;;;;27.47;54.82031;958.9456;;;;
2019/08/31 13:32:17;;;;;;;9.3;8.4;;;;;;;27;56.18359;958.9895;;;;
2019/08/31 13:34:42;;;;;;;8.6;7.9;;;;;;;27.24;55.81934;958.9225;;;;
2019/08/31 13:37:07;;;;;;;9.7;8.8;;;;;;;27.22;55.76855;958.8926;;;;
2019/08/31 13:39:32;;;;;;;9;8.1;;;;;;;27.58;54.15039;958.8692;;;;
2019/08/31 13:41:57;;;;;;;8.8;8;;;;;;;27.5;54.75098;958.8303;;;;
2019/08/31 13:44:22;;;;;;;9.5;8.7;;;;;;;27.48;53.74316;958.8392;;;;
2019/08/31 13:46:48;;;;;;;8.5;7.7;;;;;;;27.54;53.88379;958.8091;;;;
2019/08/31 13:49:13;;;;;;;9.1;8.3;;;;;;;27.38;54.47266;958.7981;;;;
2019/08/31 13:51:39;;;;;;;9.2;8.2;;;;;;;27.19;54.83301;958.7391;;;;
2019/08/31 13:54:04;;;;;;;9;8.2;;;;;;;27.14;54.56348;958.6979;;;;
2019/08/31 13:56:29;;;;;;;8.2;7.4;;;;;;;27.25;54.91211;958.6885;;;;
2019/08/31 13:58:54;;;;;;;8.1;7.4;;;;;;;27.46;52.67773;958.6371;;;;
2019/08/31 14:01:20;;;;;;;7.3;6.7;;;;;;;27.74;50.92676;958.5918;;;;
2019/08/31 14:03:45;;;;;;;7.2;6.6;;;;;;;27.79;49.38867;958.5719;;;;
2019/08/31 14:06:11;;;;;;;6.2;5.7;;;;;;;27.98;48.44043;958.5588;;;;
2019/08/31 14:08:36;;;;;;;7.1;6.4;;;;;;;27.77;48.26172;958.5172;;;;
2019/08/31 14:11:02;;;;;;;6.8;6.2;;;;;;;27.83;48.80664;958.4796;;;;
2019/08/31 14:13:27;;;;;;;6.3;5.8;;;;;;;28.01;46.81445;958.5341;;;;
2019/08/31 14:15:52;;;;;;;7.1;6;;;;;;;27.86;46.7998;958.5101;;;;
2019/08/31 14:18:17;;;;;;;6.4;5.8;;;;;;;27.68;47.53516;958.4565;;;;
2019/08/31 14:20:43;;;;;;;5.5;5.1;;;;;;;28.04;45.74023;958.5207;;;;
2019/08/31 14:23:08;;;;;;;6;5;;;;;;;27.9;46.27637;958.408;;;;
2019/08/31 14:25:33;;;;;;;5.6;5.1;;;;;;;27.56;47.03223;958.3928;;;;
2019/08/31 14:27:58;;;;;;;5.4;5;;;;;;;27.69;45.47754;958.3501;;;;
2019/08/31 14:30:24;;;;;;;5.6;5.1;;;;;;;27.64;45.66504;958.3217;;;;
2019/08/31 14:32:49;;;;;;;5;4.6;;;;;;;27.99;44.16797;958.2977;;;;
2019/08/31 14:35:15;;;;;;;5;4.5;;;;;;;27.99;44.16797;958.296;;;;
2019/08/31 14:37:40;;;;;;;5.5;5;;;;;;;28.11;43.30469;958.2219;;;;
2019/08/31 14:40:06;;;;;;;5;4.5;;;;;;;28.12;42.91016;958.2228;;;;
2019/08/31 14:42:31;;;;;;;4.6;4.2;;;;;;;28.17;43.09473;958.185;;;;
2019/08/31 14:44:56;;;;;;;4.9;4.5;;;;;;;28.05;43.07227;958.1785;;;;
2019/08/31 14:47:21;;;;;;;5.4;4.9;;;;;;;28;43.77246;958.1428;;;;
2019/08/31 14:49:46;;;;;;;5;4.5;;;;;;;27.95;45.25293;958.0961;;;;
2019/08/31 14:52:11;;;;;;;5;4.6;;;;;;;27.9;45.58203;958.088;;;;
2019/08/31 14:54:37;;;;;;;4.8;4.4;;;;;;;27.81;43.23926;958.0797;;;;
2019/08/31 14:57:02;;;;;;;5.2;4.7;;;;;;;28.04;42.24414;958.0313;;;;
2019/08/31 14:59:28;;;;;;;12.9;11.6;;;;;;;28.14;43.2959;958.0046;;;;
2019/08/31 15:01:53;;;;;;;7.8;7;;;;;;;28.1;43.2793;957.9851;;;;
2019/08/31 15:04:19;;;;;;;5.1;4.7;;;;;;;28.18;43.19141;957.9178;;;;
2019/08/31 15:06:44;;;;;;;5.4;4.9;;;;;;;27.9;45.47559;957.9233;;;;
2019/08/31 15:09:09;;;;;;;5.8;5.3;;;;;;;27.9;44.48242;957.9217;;;;
2019/08/31 15:11:34;;;;;;;5.1;4.7;;;;;;;27.95;43.82813;957.9057;;;;
2019/08/31 15:13:59;;;;;;;5.5;5;;;;;;;27.76;43.37891;957.7897;;;;
2019/08/31 15:16:25;;;;;;;4.2;3.8;;;;;;;28.08;40.44043;957.8164;;;;
2019/08/31 15:18:50;;;;;;;5;4.2;;;;;;;28.16;40.56738;957.8166;;;;
2019/08/31 15:21:15;;;;;;;4.2;3.6;;;;;;;28.11;39.50879;957.7766;;;;
2019/08/31 15:23:41;;;;;;;4.7;4.3;;;;;;;27.61;45.42188;957.7966;;;;
2019/08/31 15:26:06;;;;;;;4.9;4.5;;;;;;;27.44;43.34863;957.7715;;;;
2019/08/31 15:28:31;;;;;;;6;5.4;;;;;;;27.4;43.24902;957.7878;;;;
2019/08/31 15:30:56;;;;;;;4.5;4.1;;;;;;;27.42;41.34863;957.736;;;;
2019/08/31 15:33:21;;;;;;;4.8;4.4;;;;;;;27.59;40.85059;957.7406;;;;
2019/08/31 15:35:46;;;;;;;4.6;4.2;;;;;;;27.58;42.02148;957.7838;;;;
2019/08/31 15:38:12;;;;;;;5.5;5;;;;;;;27.53;43.09277;957.7271;;;;
2019/08/31 15:40:37;;;;;;;4.5;4.1;;;;;;;27.77;41.2627;957.7244;;;;